createdAt,value
2018-07-21T00:02:22.038Z,20.50
2018-07-21T00:04:49.272Z,20.50
2018-07-21T00:07:16.658Z,20.60
2018-07-21T00:09:44.111Z,20.70
2018-07-21T00:12:11.435Z,20.80
2018-07-21T00:14:38.789Z,20.80
2018-07-21T00:19:33.467Z,20.90
2018-07-21T00:22:00.746Z,20.90
2018-07-21T00:24:28.193Z,20.80
2018-07-21T00:26:55.471Z,20.90
2018-07-21T00:29:22.721Z,20.90
2018-07-21T00:31:50.313Z,21.00
2018-07-21T00:34:17.592Z,21.00
2018-07-21T00:36:44.835Z,21.00
2018-07-21T00:39:14.625Z,20.40
2018-07-21T00:41:41.934Z,21.10
2018-07-21T00:44:09.256Z,21.10
2018-07-21T00:46:36.795Z,21.10
2018-07-21T00:49:04.193Z,21.10
2018-07-21T00:51:31.503Z,21.20
2018-07-21T00:53:58.777Z,20.30
2018-07-21T00:56:26.088Z,21.20
2018-07-21T01:01:20.647Z,21.20
2018-07-21T01:03:48.248Z,21.20
2018-07-21T01:06:15.487Z,21.20
2018-07-21T01:08:42.764Z,21.20
2018-07-21T01:11:10.103Z,21.30
2018-07-21T01:16:04.895Z,21.30
2018-07-21T01:18:32.240Z,21.40
2018-07-21T01:20:59.583Z,21.10
2018-07-21T01:23:26.911Z,21.30
2018-07-21T01:28:21.590Z,21.30
2018-07-21T01:30:48.880Z,21.30
2018-07-21T01:33:16.295Z,21.30
2018-07-21T01:35:43.550Z,20.80
2018-07-21T01:40:38.214Z,21.20
2018-07-21T01:43:05.507Z,21.20
2018-07-21T01:45:32.790Z,21.20
2018-07-21T01:48:00.059Z,21.50
2018-07-21T01:50:27.337Z,21.20
2018-07-21T01:52:54.649Z,21.10
2018-07-21T01:55:21.970Z,21.20
2018-07-21T01:57:49.253Z,21.10
2018-07-21T02:00:16.566Z,21.20
2018-07-21T02:02:44.887Z,21.20
2018-07-21T02:05:12.499Z,21.20
2018-07-21T02:07:40.041Z,21.20
2018-07-21T02:12:34.683Z,21.20
2018-07-21T02:15:01.935Z,21.10
2018-07-21T02:17:29.203Z,21.10
2018-07-21T02:19:56.527Z,21.10
2018-07-21T02:22:23.762Z,21.10
2018-07-21T02:24:51.106Z,21.10
2018-07-21T02:27:18.346Z,21.10
2018-07-21T02:29:45.562Z,21.10
2018-07-21T02:32:12.828Z,21.00
2018-07-21T02:34:40.208Z,21.10
2018-07-21T02:39:34.747Z,20.90
2018-07-21T02:42:02.045Z,21.00
2018-07-21T02:44:29.316Z,20.90
2018-07-21T02:46:56.613Z,21.00
2018-07-21T02:49:23.990Z,21.00
2018-07-21T02:51:51.343Z,21.00
2018-07-21T02:54:18.625Z,20.90
2018-07-21T02:56:45.983Z,20.90
2018-07-21T02:59:13.290Z,20.90
2018-07-21T03:01:40.522Z,20.90
2018-07-21T03:04:07.810Z,20.80
2018-07-21T03:06:35.078Z,20.90
2018-07-21T03:09:02.577Z,20.80
2018-07-21T03:11:29.904Z,20.80
2018-07-21T03:13:57.253Z,20.80
2018-07-21T03:16:24.491Z,20.80
2018-07-21T03:18:51.799Z,20.80
2018-07-21T03:21:19.067Z,20.80
2018-07-21T03:23:46.392Z,20.80
2018-07-21T03:26:13.760Z,20.70
2018-07-21T03:28:41.019Z,20.70
2018-07-21T03:31:08.470Z,20.70
2018-07-21T03:33:35.711Z,20.70
2018-07-21T03:36:02.976Z,20.70
2018-07-21T03:38:30.272Z,19.50
2018-07-21T03:40:57.553Z,20.70
2018-07-21T03:43:25.040Z,20.60
2018-07-21T03:45:52.278Z,20.70
2018-07-21T03:48:19.576Z,20.60
2018-07-21T03:50:46.929Z,20.50
2018-07-21T03:53:14.312Z,20.50
2018-07-21T03:55:41.673Z,20.40
2018-07-21T03:58:08.930Z,20.40
2018-07-21T04:00:36.289Z,20.30
2018-07-21T04:03:03.623Z,20.30
2018-07-21T04:05:31.025Z,20.30
2018-07-21T04:07:58.347Z,20.30
2018-07-21T04:10:25.686Z,20.20
2018-07-21T04:12:52.955Z,20.30
2018-07-21T04:15:20.323Z,19.70
2018-07-21T04:17:47.656Z,20.10
2018-07-21T04:20:14.979Z,20.00
2018-07-21T04:22:42.284Z,20.10
2018-07-21T04:25:09.641Z,20.10
2018-07-21T04:27:37.013Z,20.10
2018-07-21T04:30:04.444Z,20.10
2018-07-21T04:32:31.700Z,20.10
2018-07-21T04:34:58.983Z,20.10
2018-07-21T04:37:26.327Z,20.10
2018-07-21T04:39:53.644Z,20.10
2018-07-21T04:42:20.944Z,20.20
2018-07-21T04:44:48.339Z,19.40
2018-07-21T04:47:15.590Z,20.20
2018-07-21T04:49:42.900Z,20.20
2018-07-21T04:52:10.205Z,20.00
2018-07-21T04:54:37.575Z,20.90
2018-07-21T04:57:05.007Z,20.20
2018-07-21T04:59:32.251Z,20.20
2018-07-21T05:01:59.536Z,20.20
2018-07-21T05:04:26.783Z,20.30
2018-07-21T05:06:54.079Z,19.30
2018-07-21T05:09:21.544Z,20.30
2018-07-21T05:11:48.791Z,20.30
2018-07-21T05:14:16.067Z,20.30
2018-07-21T05:16:43.374Z,19.70
2018-07-21T05:19:10.712Z,19.80
2018-07-21T05:21:38.028Z,20.40
2018-07-21T05:24:05.704Z,20.50
2018-07-21T05:26:33.366Z,20.50
2018-07-21T05:29:00.682Z,19.10
2018-07-21T05:31:27.930Z,20.50
2018-07-21T05:33:55.372Z,19.60
2018-07-21T05:36:22.687Z,20.10
2018-07-21T05:38:50.001Z,20.20
2018-07-21T05:41:17.271Z,20.40
2018-07-21T05:43:44.628Z,20.30
2018-07-21T05:46:11.926Z,20.50
2018-07-21T05:48:39.263Z,20.60
2018-07-21T05:51:06.545Z,20.80
2018-07-21T05:53:33.892Z,20.80
2018-07-21T05:56:01.507Z,20.80
2018-07-21T05:58:28.783Z,20.60
2018-07-21T06:00:56.326Z,20.80
2018-07-21T06:03:23.579Z,20.80
2018-07-21T06:05:50.844Z,20.70
2018-07-21T06:08:18.223Z,20.70
2018-07-21T06:10:45.524Z,20.70
2018-07-21T06:13:12.827Z,20.70
2018-07-21T06:15:40.092Z,20.70
2018-07-21T06:18:07.397Z,20.60
2018-07-21T06:20:34.634Z,20.60
2018-07-21T06:23:02.128Z,20.60
2018-07-21T06:25:29.387Z,20.60
2018-07-21T06:27:57.131Z,20.60
2018-07-21T06:30:24.854Z,20.70
2018-07-21T06:32:52.174Z,20.70
2018-07-21T06:37:46.964Z,20.50
2018-07-21T06:40:14.264Z,19.80
2018-07-21T06:42:41.554Z,20.50
2018-07-21T06:45:08.959Z,20.40
2018-07-21T06:47:36.270Z,19.70
2018-07-21T06:50:04.039Z,20.50
2018-07-21T06:52:32.494Z,20.30
2018-07-21T06:54:59.938Z,20.40
2018-07-21T06:57:27.235Z,20.40
2018-07-21T06:59:54.548Z,20.30
2018-07-21T07:02:21.806Z,20.60
2018-07-21T07:04:49.356Z,20.10
2018-07-21T07:07:16.694Z,19.60
2018-07-21T07:09:43.974Z,19.90
2018-07-21T07:12:11.259Z,19.00
2018-07-21T07:14:38.519Z,19.70
2018-07-21T07:17:05.856Z,19.60
2018-07-21T07:19:33.240Z,19.20
2018-07-21T07:22:00.814Z,19.10
2018-07-21T07:24:28.152Z,19.50
2018-07-21T07:26:55.544Z,19.50
2018-07-21T07:29:22.876Z,19.50
2018-07-21T07:31:50.210Z,19.40
2018-07-21T07:34:17.566Z,19.30
2018-07-21T07:36:44.954Z,19.20
2018-07-21T07:41:39.766Z,19.10
2018-07-21T07:44:07.335Z,19.10
2018-07-21T07:46:35.028Z,19.20
2018-07-21T07:49:02.310Z,19.30
2018-07-21T07:56:24.562Z,19.20
2018-07-21T07:58:51.869Z,19.30
2018-07-21T08:01:19.504Z,19.30
2018-07-21T08:03:46.794Z,19.30
2018-07-21T08:06:14.134Z,19.30
2018-07-21T08:08:41.411Z,19.40
2018-07-21T08:11:08.694Z,19.30
2018-07-21T08:13:36.450Z,19.30
2018-07-21T08:16:03.755Z,19.20
2018-07-21T08:18:31.216Z,19.10
2018-07-21T08:20:58.520Z,19.00
2018-07-21T08:23:26.182Z,19.10
2018-07-21T08:25:53.427Z,19.10
2018-07-21T08:28:20.727Z,19.00
2018-07-21T08:30:48.043Z,19.00
2018-07-21T08:33:15.293Z,18.80
2018-07-21T08:35:42.564Z,18.70
2018-07-21T08:38:09.824Z,18.70
2018-07-21T08:40:37.105Z,18.60
2018-07-21T08:43:04.363Z,18.50
2018-07-21T08:45:31.663Z,18.40
2018-07-21T08:50:26.259Z,18.30
2018-07-21T08:52:54.007Z,18.10
2018-07-21T08:55:21.262Z,18.10
2018-07-21T08:57:48.802Z,18.10
2018-07-21T09:00:16.392Z,18.20
2018-07-21T09:02:43.834Z,18.20
2018-07-21T09:07:38.948Z,18.10
2018-07-21T09:10:06.765Z,18.10
2018-07-21T09:12:34.388Z,16.20
2018-07-21T09:15:01.654Z,17.30
2018-07-21T09:17:28.904Z,17.30
2018-07-21T09:19:56.205Z,18.10
2018-07-21T09:22:23.486Z,17.80
2018-07-21T09:24:50.777Z,18.10
2018-07-21T09:29:45.515Z,18.10
2018-07-21T09:32:13.179Z,17.80
2018-07-21T09:34:40.491Z,18.10
2018-07-21T09:37:07.818Z,18.10
2018-07-21T09:42:03.008Z,18.20
2018-07-21T09:44:30.303Z,17.40
2018-07-21T09:46:57.562Z,18.20
2018-07-21T09:49:24.978Z,18.20
2018-07-21T09:51:52.309Z,18.20
2018-07-21T09:54:19.792Z,18.30
2018-07-21T09:56:47.136Z,18.30
2018-07-21T09:59:14.413Z,18.30
2018-07-21T10:01:41.743Z,18.30
2018-07-21T10:04:08.940Z,18.30
2018-07-21T10:06:36.231Z,18.40
2018-07-21T10:09:06.481Z,18.50
2018-07-21T10:11:33.834Z,17.50
2018-07-21T10:14:01.123Z,18.40
2018-07-21T10:16:28.375Z,18.50
2018-07-21T10:18:55.628Z,18.70
2018-07-21T10:21:23.768Z,18.70
2018-07-21T10:23:52.435Z,18.50
2018-07-21T10:26:25.725Z,18.80
2018-07-21T10:28:58.807Z,17.60
2018-07-21T10:31:26.141Z,19.80
2018-07-21T10:33:53.639Z,18.70
2018-07-21T10:38:48.664Z,18.80
2018-07-21T10:41:16.521Z,17.10
2018-07-21T10:43:43.795Z,18.90
2018-07-21T10:46:11.086Z,19.00
2018-07-21T10:48:38.430Z,18.80
2018-07-21T10:51:05.812Z,18.90
2018-07-21T10:53:33.105Z,18.80
2018-07-21T10:58:27.742Z,19.20
2018-07-21T11:00:55.255Z,19.30
2018-07-21T11:03:22.640Z,19.30
2018-07-21T11:05:50.104Z,18.60
2018-07-21T11:08:17.383Z,19.50
2018-07-21T11:10:44.757Z,19.60
2018-07-21T11:13:12.091Z,19.60
2018-07-21T11:15:39.367Z,19.60
2018-07-21T11:18:06.700Z,19.70
2018-07-21T11:20:34.027Z,19.70
2018-07-21T11:23:01.322Z,19.80
2018-07-21T11:25:28.612Z,19.80
2018-07-21T11:27:55.902Z,20.60
2018-07-21T11:30:23.160Z,19.90
2018-07-21T11:32:50.460Z,19.90
2018-07-21T11:35:17.861Z,19.70
2018-07-21T11:37:45.135Z,19.90
2018-07-21T11:40:12.459Z,19.90
2018-07-21T11:42:39.727Z,19.90
2018-07-21T11:45:07.145Z,20.10
2018-07-21T11:47:34.427Z,19.40
2018-07-21T11:50:01.688Z,20.30
2018-07-21T11:52:29.023Z,20.40
2018-07-21T11:54:56.508Z,20.40
2018-07-21T11:57:24.096Z,20.40
2018-07-21T11:59:51.396Z,20.40
2018-07-21T12:02:18.768Z,20.10
2018-07-21T12:04:46.177Z,20.10
2018-07-21T12:07:13.623Z,20.30
2018-07-21T12:09:40.907Z,20.10
2018-07-21T12:12:08.340Z,20.10
2018-07-21T12:14:35.792Z,20.10
2018-07-21T12:17:03.062Z,20.10
2018-07-21T12:19:30.350Z,20.10
2018-07-21T12:21:57.645Z,20.20
2018-07-21T12:24:24.995Z,20.10
2018-07-21T12:29:19.764Z,20.40
2018-07-21T12:31:47.323Z,20.40
2018-07-21T12:34:14.666Z,19.30
2018-07-21T12:36:41.887Z,20.30
2018-07-21T12:39:10.060Z,20.30
2018-07-21T12:41:37.847Z,20.30
2018-07-21T12:44:05.219Z,20.30
2018-07-21T12:46:32.631Z,20.30
2018-07-21T12:48:59.957Z,20.30
2018-07-21T12:51:27.491Z,20.20
2018-07-21T12:53:55.219Z,19.60
2018-07-21T12:56:22.513Z,19.10
2018-07-21T12:58:49.814Z,19.90
2018-07-21T13:01:17.099Z,19.90
2018-07-21T13:03:44.375Z,20.00
2018-07-21T13:06:11.730Z,20.00
2018-07-21T13:08:39.006Z,20.10
2018-07-21T13:11:06.635Z,20.30
2018-07-21T13:13:33.903Z,20.40
2018-07-21T13:16:01.339Z,20.40
2018-07-21T13:18:28.633Z,20.50
2018-07-21T13:20:55.958Z,20.40
2018-07-21T13:23:23.409Z,20.50
2018-07-21T13:25:50.691Z,20.60
2018-07-21T13:28:18.035Z,20.60
2018-07-21T13:30:45.328Z,20.50
2018-07-21T13:33:13.504Z,20.60
2018-07-21T13:35:40.911Z,20.70
2018-07-21T13:40:35.772Z,20.80
2018-07-21T13:43:03.113Z,20.80
2018-07-21T13:47:57.697Z,20.80
2018-07-21T13:50:25.020Z,19.90
2018-07-21T13:52:52.367Z,20.70
2018-07-21T13:55:19.700Z,20.70
2018-07-21T13:57:47.140Z,22.30
2018-07-21T14:00:14.479Z,20.70
2018-07-21T14:05:09.687Z,20.90
2018-07-21T14:07:37.259Z,20.90
2018-07-21T14:10:04.801Z,21.00
2018-07-21T14:12:32.345Z,21.10
2018-07-21T14:14:59.802Z,21.10
2018-07-21T14:17:27.218Z,21.10
2018-07-21T14:19:54.585Z,21.10
2018-07-21T14:22:21.854Z,21.20
2018-07-21T14:24:49.409Z,21.30
2018-07-21T14:27:16.710Z,20.80
2018-07-21T14:29:44.178Z,21.30
2018-07-21T14:32:11.699Z,21.30
2018-07-21T14:34:39.013Z,20.40
2018-07-21T14:37:06.655Z,21.40
2018-07-21T14:39:33.999Z,21.50
2018-07-21T14:44:28.599Z,21.50
2018-07-21T14:46:55.917Z,21.50
2018-07-21T14:49:23.206Z,21.50
2018-07-21T14:51:50.504Z,21.30
2018-07-21T14:54:18.470Z,21.50
2018-07-21T14:56:45.761Z,21.50
2018-07-21T14:59:13.218Z,21.50
2018-07-21T15:01:40.565Z,21.40
2018-07-21T15:04:07.855Z,21.40
2018-07-21T15:06:35.249Z,20.60
2018-07-21T15:09:02.631Z,21.30
2018-07-21T15:11:29.937Z,21.50
2018-07-21T15:13:57.299Z,21.60
2018-07-21T15:16:24.583Z,21.60
2018-07-21T15:18:51.851Z,21.70
2018-07-21T15:21:19.167Z,21.50
2018-07-21T15:23:46.696Z,21.80
2018-07-21T15:26:14.102Z,21.90
2018-07-21T15:28:41.391Z,22.00
2018-07-21T15:31:08.812Z,22.00
2018-07-21T15:33:36.084Z,22.00
2018-07-21T15:36:03.336Z,20.70
2018-07-21T15:38:30.683Z,22.10
2018-07-21T15:40:58.042Z,22.10
2018-07-21T15:43:25.342Z,22.20
2018-07-21T15:45:52.634Z,22.30
2018-07-21T15:48:20.055Z,21.60
2018-07-21T15:50:47.494Z,22.40
2018-07-21T15:53:15.331Z,22.40
2018-07-21T15:55:42.632Z,22.40
2018-07-21T15:58:10.090Z,22.60
2018-07-21T16:00:37.579Z,21.80
2018-07-21T16:03:04.896Z,22.50
2018-07-21T16:05:32.183Z,22.50
2018-07-21T16:07:59.576Z,22.20
2018-07-21T16:10:26.872Z,22.00
2018-07-21T16:12:54.299Z,22.10
2018-07-21T16:15:21.675Z,21.70
2018-07-21T16:17:48.952Z,21.70
2018-07-21T16:20:16.249Z,21.70
2018-07-21T16:22:44.777Z,21.60
2018-07-21T16:25:12.136Z,21.40
2018-07-21T16:27:39.504Z,20.40
2018-07-21T16:30:06.911Z,21.50
2018-07-21T16:32:34.255Z,21.50
2018-07-21T16:35:01.496Z,21.60
2018-07-21T16:37:28.856Z,21.40
2018-07-21T16:39:56.740Z,21.50
2018-07-21T16:42:24.085Z,21.40
2018-07-21T16:44:51.403Z,21.40
2018-07-21T16:49:46.330Z,21.50
2018-07-21T16:54:41.259Z,21.40
2018-07-21T16:57:08.599Z,21.40
2018-07-21T16:59:35.907Z,21.40
2018-07-21T17:02:03.224Z,21.40
2018-07-21T17:04:30.877Z,21.20
2018-07-21T17:06:58.195Z,21.30
2018-07-21T17:09:25.596Z,21.10
2018-07-21T17:11:53.058Z,21.10
2018-07-21T17:14:20.451Z,21.00
2018-07-21T17:19:15.050Z,20.90
2018-07-21T17:21:42.498Z,20.90
2018-07-21T17:24:09.931Z,21.00
2018-07-21T17:26:37.208Z,20.90
2018-07-21T17:29:04.551Z,20.90
2018-07-21T17:31:31.956Z,21.60
2018-07-21T17:33:59.459Z,20.40
2018-07-21T17:36:26.747Z,20.70
2018-07-21T17:38:54.027Z,20.70
2018-07-21T17:41:21.376Z,20.50
2018-07-21T17:43:48.666Z,20.40
2018-07-21T17:46:17.007Z,20.20
2018-07-21T17:51:11.588Z,20.10
2018-07-21T17:53:38.883Z,20.10
2018-07-21T17:56:06.363Z,20.10
2018-07-21T17:58:33.683Z,20.00
2018-07-21T18:01:00.983Z,19.90
2018-07-21T18:03:28.304Z,19.90
2018-07-21T18:05:55.697Z,19.90
2018-07-21T18:08:23.194Z,20.10
2018-07-21T18:10:50.495Z,19.90
2018-07-21T18:13:17.824Z,19.80
2018-07-21T18:15:45.212Z,19.80
2018-07-21T18:18:12.516Z,19.80
2018-07-21T18:20:39.811Z,19.40
2018-07-21T18:23:07.371Z,19.70
2018-07-21T18:25:34.770Z,19.30
2018-07-21T18:28:02.119Z,19.80
2018-07-21T18:30:29.522Z,19.80
2018-07-21T18:35:24.703Z,19.60
2018-07-21T18:37:52.176Z,18.20
2018-07-21T18:40:20.005Z,18.30
2018-07-21T18:42:47.360Z,19.80
2018-07-21T18:45:14.782Z,19.50
2018-07-21T18:47:42.196Z,19.40
2018-07-21T18:50:09.700Z,19.40
2018-07-21T18:52:37.132Z,19.40
2018-07-21T18:55:04.825Z,19.30
2018-07-21T18:57:32.207Z,19.40
2018-07-21T19:00:00.107Z,19.30
2018-07-21T19:02:28.131Z,19.30
2018-07-21T19:04:55.631Z,19.90
2018-07-21T19:07:22.931Z,17.90
2018-07-21T19:09:50.623Z,19.30
2018-07-21T19:12:23.846Z,19.20
2018-07-21T19:14:51.216Z,17.90
2018-07-21T19:17:19.374Z,19.00
2018-07-21T19:19:53.660Z,19.00
2018-07-21T19:22:21.908Z,19.00
2018-07-21T19:24:49.294Z,18.90
2018-07-21T19:27:22.287Z,18.90
2018-07-21T19:29:49.794Z,20.30
2018-07-21T19:34:50.525Z,18.80
2018-07-21T19:37:23.459Z,18.80
2018-07-21T19:39:51.054Z,18.80
2018-07-21T19:42:18.296Z,18.80
2018-07-21T19:44:45.580Z,18.80
2018-07-21T19:47:13.139Z,18.80
2018-07-21T19:49:40.385Z,18.90
2018-07-21T19:52:08.064Z,18.80
2018-07-21T19:54:35.436Z,18.80
2018-07-21T19:57:02.921Z,18.20
2018-07-21T20:01:57.564Z,18.80
2018-07-21T20:04:25.047Z,18.00
2018-07-21T20:06:52.354Z,18.80
2018-07-21T20:09:19.739Z,20.30
2018-07-21T20:11:47.151Z,18.80
2018-07-21T20:14:14.677Z,18.80
2018-07-21T20:16:42.011Z,18.80
2018-07-21T20:19:09.378Z,18.70
2018-07-21T20:21:36.918Z,18.90
2018-07-21T20:24:04.332Z,18.90
2018-07-21T20:26:31.663Z,17.40
2018-07-21T20:28:58.922Z,18.80
2018-07-21T20:36:20.871Z,18.80
2018-07-21T20:38:48.460Z,18.90
2018-07-21T20:41:15.797Z,18.80
2018-07-21T20:43:43.117Z,18.80
2018-07-21T20:46:10.491Z,17.70
2018-07-21T20:48:37.900Z,18.70
2018-07-21T20:51:05.445Z,18.80
2018-07-21T20:53:33.246Z,18.80
2018-07-21T20:56:00.522Z,18.80
2018-07-21T20:58:27.852Z,18.80
2018-07-21T21:00:55.388Z,18.80
2018-07-21T21:05:50.014Z,18.80
2018-07-21T21:08:17.450Z,18.80
2018-07-21T21:10:44.803Z,18.70
2018-07-21T21:13:12.267Z,18.70
2018-07-21T21:15:39.802Z,18.60
2018-07-21T21:20:35.411Z,18.60
2018-07-21T21:23:02.776Z,18.60
2018-07-21T21:27:57.313Z,18.50
2018-07-21T21:30:24.755Z,18.50
2018-07-21T21:32:52.003Z,17.60
2018-07-21T21:37:46.564Z,18.40
2018-07-21T21:40:13.920Z,18.50
2018-07-21T21:42:41.353Z,18.30
2018-07-21T21:45:08.664Z,18.30
2018-07-21T21:47:36.243Z,18.30
2018-07-21T21:50:03.695Z,18.00
2018-07-21T21:52:30.986Z,18.30
2018-07-21T21:54:58.276Z,18.30
2018-07-21T21:57:25.575Z,18.30
2018-07-21T21:59:52.854Z,18.30
2018-07-21T22:04:47.450Z,18.30
2018-07-21T22:07:14.830Z,18.20
2018-07-21T22:09:42.164Z,18.20
2018-07-21T22:12:09.513Z,17.50
2018-07-21T22:14:36.818Z,17.20
2018-07-21T22:17:04.254Z,18.10
2018-07-21T22:19:31.565Z,18.10
2018-07-21T22:21:58.862Z,19.10
2018-07-21T22:24:26.128Z,18.10
2018-07-21T22:26:53.795Z,18.00
2018-07-21T22:31:48.384Z,17.90
2018-07-21T22:34:15.656Z,17.90
2018-07-21T22:36:42.947Z,17.90
2018-07-21T22:41:38.921Z,18.00
2018-07-21T22:46:33.564Z,18.00
2018-07-21T22:49:00.847Z,17.80
2018-07-21T22:51:28.195Z,17.90
2018-07-21T22:53:55.463Z,17.90
2018-07-21T22:56:22.800Z,17.90
2018-07-21T22:58:50.067Z,17.90
2018-07-21T23:01:17.413Z,17.90
2018-07-21T23:03:44.623Z,17.90
2018-07-21T23:06:11.936Z,17.90
2018-07-21T23:08:39.319Z,17.90
2018-07-21T23:11:06.710Z,17.90
2018-07-21T23:16:01.359Z,17.80
2018-07-21T23:18:28.658Z,17.80
2018-07-21T23:20:55.899Z,17.80
2018-07-21T23:23:23.199Z,17.80
2018-07-21T23:25:50.549Z,17.80
2018-07-21T23:28:17.816Z,17.70
2018-07-21T23:30:46.187Z,17.70
2018-07-21T23:33:13.496Z,17.80
2018-07-21T23:35:40.868Z,17.80
2018-07-21T23:38:08.155Z,17.30
2018-07-21T23:40:35.467Z,17.70
2018-07-21T23:43:02.808Z,17.70
2018-07-21T23:45:30.078Z,17.80
2018-07-21T23:47:57.391Z,17.70
2018-07-21T23:50:24.739Z,17.80
2018-07-21T23:52:52.066Z,17.70
2018-07-21T23:55:19.343Z,16.00
2018-07-21T23:57:46.893Z,16.50
